Genoa, Illinois
Current Conditions -  °F | °C
As of 10:55 AM on Thursday 30 Oct 2014 (Local Time) from KDKB Reporting Station
Scattered Clouds Scattered Clouds  
Wind Chill: 41°   Ceiling: Unl
Heat Index: 45°   Visibility: 10mi
Dew Point: 35°   Wind: 9mph
Humidity: 68%   Direction: 220°SW
Pressure: 30.13"   Gusts: NA
Location:  42.1°N, 88.69°W
Report Text: KDKB 301555Z AUTO 22008KT 10SM SCT100 SCT110 07/02 A3013 RMK AO2 T00740019
Loading
Personal Weather Stations






























Interactive Weather Map
Tropical Storm Tracking
New forecast layout! Learn more

10-Day Weather Forecast

Advertisements
Track Severe Weather on mobile